Caliente, Nevada Weather observations

Data are for observation ending at time listed.
 Day   Time    Ave.   Ave.  Ave.  Vector   Max.   Stn.    Total    Solar   Ave.  
  of    of     Air    Rel.  Wind   Wind    Wind   Baro.  Precip.   Rad.    Soil  
Year   Day     Temp.  Hum.  Speed  Dir.    Gust   Pres.                    Temp. 
2016   (PST)    F      %     mph   deg.    mph     mb.     in.     W/m2     F   
------------------------------------------------------------------------------
 236    8:00   62.0    81    1.5    36      3.0   851.7    0.00     189    72.2
 236    8:10   63.8    77    0.8    74      2.5   851.7    0.00     525    72.3
 236    8:20   65.5    71    1.6    45      3.9   851.5    0.00     518    72.5
 236    8:30   67.0    68    0.9    80      3.0   851.5    0.00     504    72.7
 236    8:40   66.8    69    3.6   350      7.0   851.6    0.00     523    73.0
 236    8:50   66.6    69    3.0   346      4.7   851.6    0.00     542    73.3
 236    9:00   67.4    67    2.5    18      5.9   851.5    0.00     555    73.7
 236    9:10   68.8    63    1.6   146      4.2   851.4    0.00     322    74.0
 236    9:20   69.1    61    1.6   242      4.0   851.3    0.00     167    74.4
 236    9:30   70.1    58    1.1   339      2.9   851.2    0.00     601    74.7
 236    9:40   71.0    57    1.4   347      3.7   851.2    0.00     621    75.1
 236    9:50   71.9    56    1.8     7      4.3   851.3    0.00     636    75.5
 236   10:00   73.4    53    1.6     2      4.1   851.3    0.01     650    76.2
 236   10:10   74.4    50    1.3   263      4.2   851.2    0.00     662    77.0
 236   10:20   74.5    51    2.2   235      4.7   851.1    0.00     675    77.9
 236   10:30   75.1    50    2.4   259      5.2   851.1    0.00     690    78.7
 236   10:40   75.0    51    4.3   250      7.4   851.0    0.00     699    79.6
 236   10:50   75.6    45    5.1   251      9.0   850.6    0.00     709    80.3
 236   11:00   76.5    44    4.6   250      8.5   850.6    0.00     710    81.0
 236   11:10   76.6    42    3.8   249      6.9   850.4    0.00     716    81.5
 236   11:20   77.6    44    5.1   248     10.1   850.5    0.00     721    81.9
 236   11:30   77.9    44    4.8   247      8.1   850.4    0.00     724    81.7
 236   11:40   78.7    42    6.3   253     10.8   850.4    0.00     725    81.3
 236   11:50   79.3    40    4.1   248      9.1   850.2    0.00     726    80.9
 236   12:00   79.8    37    4.6   249      8.9   850.0    0.00     726    80.8
 236   12:10   80.5    34    5.6   248      9.1   849.8    0.00     724    80.6
 236   12:20   80.8    34    4.4   248     10.7   849.7    0.00     720    80.3
 236   12:30   81.2    34    5.2   248      9.6   849.6    0.00     715    80.3
 236   12:40   81.7    35    4.5   245      9.1   849.6    0.00     709    80.2
 236   12:50   82.5    33    4.5   246      8.0   849.6    0.00     706    80.4
 236   13:00   82.8    33    5.1   249      9.3   849.6    0.00     698    80.3
 236   13:10   83.2    32    5.9   247      9.0   849.4    0.00     690    80.4
 236   13:20   83.2    33    6.5   246     14.1   849.4    0.00     682    80.5
 236   13:30   83.7    32    5.5   247     11.4   849.4    0.00     671    80.5
 236   13:40   84.1    31    5.8   246      9.3   849.2    0.00     657    80.6
 236   13:50   83.9    31    7.0   247     14.7   849.1    0.00     644    80.7
 236   14:00   83.7    32    8.0   246     13.9   849.0    0.00     634    80.9
 236   14:10   84.2    32    8.2   248     15.1   849.0    0.00     635    81.0
 236   14:20   84.1    32    7.6   248     14.2   848.9    0.00     662    81.3
 236   14:30   83.9    34    5.9   245     13.2   848.8    0.00     446    81.5
 236   14:40   82.7    36    9.2   246     19.2   848.8    0.00     268    81.9
 236   14:50   81.6    38    7.7   247     15.6   848.9    0.00     193    82.0
 236   15:00   80.8    39    5.4   250     14.4   848.8    0.00     156    82.1
 236   15:10   80.3    40    5.2   246     10.7   848.9    0.00     133    82.3
 236   15:20   79.8    41    7.5   247     11.8   848.8    0.00     135    82.1
 236   15:30   79.7    42    6.5   248     10.7   848.8    0.00     142    82.4
 236   15:40   79.7    41    6.2   246     12.3   848.7    0.00     137    82.4
 236   15:50   79.7    40    7.4   246     15.6   848.7    0.00     120    82.4
 236   16:00   79.6    40    7.7   247     13.4   848.7    0.00      95    82.4
 236   16:10   79.3    40    7.4   246     14.6   848.7    0.00      83    82.5
 236   16:20   79.1    41    7.0   248     12.1   848.7    0.00      62    82.3
 236   16:30   78.9    40    8.8   245     14.2   848.8    0.00      43    82.3
 236   16:40   78.6    41    8.1   247     12.9   849.1    0.00      29    82.2
 236   16:50   78.5    38    6.8   240     13.7   849.2    0.00      17    82.2
 236   17:00   78.4    40    5.7   247     11.1   849.3    0.00      14    82.2
 236   17:10   77.9    39    2.7   187      8.8   848.6    0.00      14    82.0
 236   17:20   78.2    34    5.2   247     12.3   848.2    0.00      15    81.9
 236   17:30   78.5    30    2.5   234      8.6   848.1    0.00      19    81.6
 236   17:40   78.2    30    2.0   115      3.8   848.4    0.00      16    81.7
 236   17:50   77.9    31    3.4    97     14.1   848.7    0.00      11    81.8
 236   18:00   74.3    38    7.9    97     22.9   849.2    0.00       9    81.6
 236   18:10   72.2    39    3.5    94      9.3   849.1    0.00       9    81.4
 236   18:20   71.5    37    3.7    95     12.8   849.1    0.00       4    81.3
 236   18:30   71.4    36    3.2   104     10.2   849.1    0.00       3    81.1
 236   18:40   71.0    35    4.3   102     10.0   848.9    0.00       1    80.8
 236   18:50   70.8    34    3.3    78      8.6   848.8    0.00       0    80.7
 236   19:00   70.9    35    2.7   340      6.9   848.9    0.00       0    80.5
 236   19:10   71.0    35    3.6   259      9.1   848.8    0.00       1    80.4
 236   19:20   71.0    35    2.5   256      5.7   848.7    0.00       1    80.4
 236   19:30   70.8    35    0.6   309      3.7   848.6    0.00       0    80.2
 236   19:40   70.7    35    4.0   302      5.7   848.9    0.00       0    80.2
 236   19:50   70.1    37    2.5    95      4.5   849.0    0.00       0    80.2
 236   20:00   69.4    39    1.8   121      4.2   849.1    0.00       0    80.0
 236   20:10   69.1    41    0.6    72      3.0   849.2    0.00       0    79.9
 236   20:20   68.0    44    1.3   112      3.6   849.1    0.00       0    79.8
 236   20:30   67.6    46    0.3   205      1.6   849.1    0.00       0    79.6
 236   20:40   66.4    50    0.6   102      2.3   849.3    0.00       0    79.6
 236   20:50   66.0    50    1.6   112      3.4   849.4    0.00       0    79.5
 236   21:00   66.5    47    1.3    57      6.3   849.3    0.00       0    79.1
 236   21:10   66.6    49    1.3    71      4.6   849.6    0.00       0    79.2
 236   21:20   66.2    50    0.9    66      4.2   849.7    0.00       0    78.8
 236   21:30   66.5    47    2.2    56      8.8   849.6    0.00       0    78.8
 236   21:40   66.3    48    2.3   124      6.4   849.7    0.00       0    78.6
 236   21:50   65.7    50    0.4   183      1.1   849.6    0.00       0    78.5
 236   22:00   65.2    53    1.9     7      3.0   849.9    0.00       0    78.4
 236   22:10   64.6    54    1.6   114      3.1   850.0    0.00       0    78.3
 236   22:20   64.3    55    0.8   236      1.9   850.0    0.00       0    78.2
 236   22:30   64.0    58    0.9   256      2.7   850.1    0.00       0    78.2
 236   22:40   63.6    60    0.8   120      2.6   850.3    0.00       0    77.9
 236   22:50   62.7    61    1.3   184      2.2   850.3    0.00       0    78.0
 236   23:00   62.8    63    0.7   279      2.5   850.4    0.00       0    77.7
 236   23:10   62.9    62    0.7    61      2.4   850.3    0.00       0    77.7
 236   23:20   63.0    60    0.8    69      3.1   850.3    0.00       0    77.6
 236   23:30   63.1    60    1.6    41      5.1   850.2    0.00       0    77.8
 236   23:40   63.0    61    1.3   268      2.9   850.1    0.00       0    77.3
 236   23:50   62.1    64    1.2     2      3.3   850.2    0.00       1    77.1
 237    0:00   61.7    66    0.7   200      1.8   850.3    0.00       0    77.1
 237    0:10   61.3    66    0.7   119      2.5   850.2    0.00       0    76.9
 237    0:20   60.8    68    1.0   186      1.8   850.1    0.00       0    76.7
 237    0:30   60.7    70    0.7   330      2.4   850.3    0.00       0    76.6
 237    0:40   60.5    69    0.8    87      3.1   850.3    0.00       1    76.7
 237    0:50   60.6    68    2.0    48      6.3   850.4    0.00       1    76.4
 237    1:00   60.7    66    2.1    59      4.7   850.3    0.00       1    76.4
 237    1:10   60.6    67    2.8    38      6.9   850.3    0.00       1    76.3
 237    1:20   60.4    68    2.1    30      6.2   850.3    0.00       1    75.9
 237    1:30   60.2    69    0.5   130      2.0   850.4    0.00       0    75.9
 237    1:40   60.0    70    1.4   255      3.1   850.5    0.00       0    75.8
 237    1:50   59.4    72    0.5   158      1.7   850.4    0.00       0    75.5
 237    2:00   58.5    74    0.9   136      3.0   850.5    0.00       0    75.4
 237    2:10   58.1    76    1.2    47      2.5   850.6    0.00       0    75.5
 237    2:20   58.4    75    0.4    94      1.7   850.5    0.00       0    75.4
 237    2:30   58.3    75    1.2    74      2.5   850.5    0.00       0    75.2
 237    2:40   58.5    75    1.1    47      3.7   850.5    0.00       0    75.1
 237    2:50   58.2    76    0.3   168      1.2   850.6    0.00       0    75.0
 237    3:00   57.9    77    0.0   196      0.7   850.6    0.00       0    74.7
 237    3:10   57.9    78    0.6   114      2.8   850.7    0.00       0    74.7
 237    3:20   57.1    80    1.7   156      3.7   850.8    0.00       0    74.7
 237    3:30   57.6    79    0.6   256      3.1   850.9    0.00       0    74.5
 237    3:40   56.9    80    0.4   143      1.4   850.9    0.00       0    74.3
 237    3:50   56.8    81    0.1   166      0.9   851.0    0.00       0    74.5
 237    4:00   56.3    82    0.3   126      1.1   851.1    0.00       0    74.3
 237    4:10   56.2    83    0.3   184      1.2   851.2    0.00       0    74.0
 237    4:20   55.9    83    0.3   180      1.3   851.3    0.00       0    74.1
 237    4:30   55.6    84    0.0     0      0.0   851.3    0.00       0    73.9
 237    4:40   55.7    84    0.0   152      1.2   851.4    0.00       0    73.8
 237    4:50   56.0    83    0.4    57      2.5   851.3    0.00       0    73.8
 237    5:00   56.2    82    0.4    85      2.6   851.4    0.00       0    73.6
 237    5:10   56.0    82    1.1    45      2.9   851.5    0.00       2    73.7
 237    5:20   55.9    82    0.3    42      1.9   851.5    0.00       7    73.4
 237    5:30   55.6    83    0.5   176      1.7   851.6    0.00      12    73.3
 237    5:40   55.4    84    0.5    38      1.8   851.6    0.00      18    73.2
 237    5:50   55.5    82    0.7    14      2.2   851.5    0.00      25    73.1
 237    6:00   55.8    81    0.7    18      1.5   851.5    0.00      31    73.0
 237    6:10   56.4    81    0.3   127      1.3   851.6    0.00      39    73.0
 237    6:20   57.1    80    0.1   122      0.8   851.5    0.00      70    72.9
 237    6:30   57.8    78    0.7    79      1.8   851.4    0.00     142    72.8
 237    6:40   58.2    77    0.5    90      1.5   851.4    0.00     158    72.8
 237    6:50   58.8    76    0.5   114      1.7   851.5    0.00     227    72.6
 237    7:00   60.0    72    0.7    99      2.0   851.3    0.00     258    72.7
 237    7:10   61.4    68    1.0   114      2.5   851.2    0.00     272    72.8
 237    7:20   62.6    64    1.0   120      2.3   851.1    0.00     304    72.7
 237    7:30   65.2    59    0.4   122      2.9   851.0    0.00     331    72.7
 237    7:40   65.9    57    1.1    58      3.6   850.9    0.00     350    72.8
 237    7:50   66.7    55    1.4    69      3.9   850.8    0.00     377    73.0

Return to Caliente, Nevada graphs page.


Western Regional Climate Center,wrcc@dri.edu